Time;durP1;ratioP1;P1;durP2;ratioP2;P2;SDS_P1;SDS_P2;PMS_P1;PMS_P2;Temp;Humidity;BMP_temperature;BMP_pressure;BME280_temperature;BME280_humidity;BME280_pressure;Samples;Min_cycle;Max_cycle;Signal;HPM_P1;HPM_P2
2021/11/29 00:00:06;;;;;;;;;;;;;;;;;;5024635;28;20403;-66
2021/11/29 00:02:38;;;;;;;;;;;;;;;;;;5026358;28;19939;-66
2021/11/29 00:05:08;;;;;;;;;;;;;;;;;;5026040;28;20339;-66
2021/11/29 00:07:35;;;;;;;;;;;;;;;;;;5024206;28;19944;-66
2021/11/29 00:10:06;;;;;;;;;;;;;;;;;;5015874;28;19934;-66
2021/11/29 00:12:37;;;;;;;;;;;;;;;;;;5022954;28;19933;-66
2021/11/29 00:15:08;;;;;;;;;;;;;;;;;;5023656;28;19956;-67
2021/11/29 00:17:37;;;;;;;;;;;;;;;;;;5024986;28;19952;-66
2021/11/29 00:20:06;;;;;;;;;;;;;;;;;;5026735;28;19926;-66
2021/11/29 00:22:35;;;;;;;;;;;;;;;;;;5021542;28;20297;-66
2021/11/29 00:25:04;;;;;;;;;;;;;;;;;;5024269;28;19932;-65
2021/11/29 00:27:36;;;;;;;;;;;;;;;;;;5025676;28;19925;-65
2021/11/29 00:30:06;;;;;;;;;;;;;;;;;;5037496;28;19936;-66
2021/11/29 00:32:38;;;;;;;;;;;;;;;;;;5024364;28;19929;-65
2021/11/29 00:35:08;;;;;;;;;;;;;;;;;;5029314;28;20363;-65
2021/11/29 00:37:42;;;;;;;;;;;;;;;;;;5020056;28;19925;-65
2021/11/29 00:40:14;;;;;;;;;;;;;;;;;;5027606;28;19952;-65
2021/11/29 00:42:44;;;;;;;;;;;;;;;;;;5023519;28;19925;-65
2021/11/29 00:45:15;;;;;;;;;;;;;;;;;;5028512;28;19925;-65
2021/11/29 00:47:51;;;;;;;;;;;;;;;;;;5022429;28;19929;-65
2021/11/29 00:50:19;;;;;;;;;;;;;;;;;;5025310;28;20637;-66
2021/11/29 00:52:49;;;;;;;;;;;;;;;;;;5009229;28;19982;-65
2021/11/29 00:55:18;;;;;;;;;;;;;;;;;;5020032;28;20339;-66
2021/11/29 00:57:53;;;;;;;;;;;;;;;;;;5025650;28;20361;-65
2021/11/29 01:00:24;;;;;;;;;;;;;;;;;;5020310;28;19925;-65
2021/11/29 01:02:54;;;;;;;;;;;;;;;;;;5021053;28;19926;-66
2021/11/29 01:05:30;;;;;;;;;;;;;;;;;;5014577;28;19961;-65
2021/11/29 01:08:00;;;;;;;;;;;;;;;;;;4986699;28;19926;-65
2021/11/29 01:10:34;;;;;;;;;;;;;;;;;;4986080;28;20248;-65
2021/11/29 01:13:05;;;;;;;;;;;;;;;;;;4984846;28;19926;-65
2021/11/29 01:15:34;;;;;;;;;;;;;;;;;;4983099;28;20450;-66
2021/11/29 01:18:08;;;;;;;;;;;;;;;;;;4976358;28;19999;-66
2021/11/29 01:20:38;;;;;;;;;;;;;;;;;;4985467;28;19934;-66
2021/11/29 01:23:06;;;;;;;;;;;;;;;;;;4983172;28;19933;-66
2021/11/29 01:25:38;;;;;;;;;;;;;;;;;;4982023;28;19926;-65
2021/11/29 01:28:08;;;;;;;;;;;;;;;;;;4987549;28;19953;-65
2021/11/29 01:30:37;;;;;;;;;;;;;;;;;;4985699;28;19941;-65
2021/11/29 01:33:10;;;;;;;;;;;;;;;;;;4987406;28;19930;-65
2021/11/29 01:35:39;;;;;;;;;;;;;;;;;;4978605;28;19933;-65
2021/11/29 01:38:07;;;;;;;;;;;;;;;;;;4980381;28;19937;-65
2021/11/29 01:40:36;;;;;;;;;;;;;;;;;;4984090;28;20287;-65
2021/11/29 01:43:19;;;;;;;;;;;;;;;;;;4987556;28;19926;-65
2021/11/29 01:45:50;;;;;;;;;;;;;;;;;;4981504;28;19974;-65
2021/11/29 01:48:18;;;;;;;;;;;;;;;;;;4977928;28;19937;-65
2021/11/29 01:50:48;;;;;;;;;;;;;;;;;;4983033;28;19930;-65
2021/11/29 01:53:19;;;;;;;;;;;;;;;;;;4990408;28;19933;-65
2021/11/29 01:55:48;;;;;;;;;;;;;;;;;;4989248;28;20012;-65
2021/11/29 01:58:21;;;;;;;;;;;;;;;;;;4984207;28;19941;-65
2021/11/29 02:00:51;;;;;;;;;;;;;;;;;;4982546;28;20252;-65
2021/11/29 02:03:24;;;;;;;;;;;;;;;;;;4984764;28;19945;-65
2021/11/29 02:05:54;;;;;;;;;;;;;;;;;;4985939;28;19930;-65
2021/11/29 02:08:25;;;;;;;;;;;;;;;;;;5023298;28;20010;-65
2021/11/29 02:10:55;;;;;;;;;;;;;;;;;;5025398;28;19925;-65
2021/11/29 02:13:23;;;;;;;;;;;;;;;;;;5018488;28;19925;-65
2021/11/29 02:15:54;;;;;;;;;;;;;;;;;;5009993;28;19925;-65
2021/11/29 02:18:26;;;;;;;;;;;;;;;;;;5025296;28;19936;-65
2021/11/29 02:20:56;;;;;;;;;;;;;;;;;;5024837;28;19949;-65
2021/11/29 02:23:24;;;;;;;;;;;;;;;;;;5013882;28;19947;-65
2021/11/29 02:25:51;;;;;;;;;;;;;;;;;;5027359;28;19933;-65
2021/11/29 02:28:25;;;;;;;;;;;;;;;;;;5019380;28;19967;-65
2021/11/29 02:30:55;;;;;;;;;;;;;;;;;;5024817;28;19937;-65
2021/11/29 02:33:24;;;;;;;;;;;;;;;;;;5019586;28;20350;-65
2021/11/29 02:35:53;;;;;;;;;;;;;;;;;;5018300;28;19933;-65
2021/11/29 02:38:24;;;;;;;;;;;;;;;;;;5023557;28;19925;-65
2021/11/29 02:40:53;;;;;;;;;;;;;;;;;;5024001;28;20347;-65
2021/11/29 02:43:22;;;;;;;;;;;;;;;;;;5021496;28;19929;-65
2021/11/29 02:45:51;;;;;;;;;;;;;;;;;;5016627;28;19936;-65
2021/11/29 02:48:18;;;;;;;;;;;;;;;;;;5023301;28;19979;-65
2021/11/29 02:50:48;;;;;;;;;;;;;;;;;;5028913;28;19932;-65
2021/11/29 02:53:16;;;;;;;;;;;;;;;;;;5025327;28;20359;-65
2021/11/29 02:55:45;;;;;;;;;;;;;;;;;;5023296;28;20406;-65
2021/11/29 02:58:15;;;;;;;;;;;;;;;;;;5025338;28;19936;-64
2021/11/29 03:00:43;;;;;;;;;;;;;;;;;;5027326;28;19933;-65
2021/11/29 03:03:14;;;;;;;;;;;;;;;;;;5026738;28;19973;-65
2021/11/29 03:05:45;;;;;;;;;;;;;;;;;;5029893;28;19929;-65
2021/11/29 03:08:14;;;;;;;;;;;;;;;;;;5030966;28;19933;-65
2021/11/29 03:10:44;;;;;;;;;;;;;;;;;;5029142;28;20018;-65
2021/11/29 03:13:18;;;;;;;;;;;;;;;;;;5025813;28;19928;-65
2021/11/29 03:15:48;;;;;;;;;;;;;;;;;;5027827;28;19929;-65
2021/11/29 03:18:17;;;;;;;;;;;;;;;;;;5031472;28;19925;-65
2021/11/29 03:20:48;;;;;;;;;;;;;;;;;;5029563;28;20330;-65
2021/11/29 03:23:19;;;;;;;;;;;;;;;;;;5027857;28;19925;-65
2021/11/29 03:25:50;;;;;;;;;;;;;;;;;;5027122;28;20695;-65
2021/11/29 03:28:19;;;;;;;;;;;;;;;;;;5029941;28;19925;-65
2021/11/29 03:30:50;;;;;;;;;;;;;;;;;;5027142;28;20384;-65
2021/11/29 03:33:23;;;;;;;;;;;;;;;;;;5011500;28;20008;-65
2021/11/29 03:35:51;;;;;;;;;;;;;;;;;;5025327;28;19926;-65
2021/11/29 03:38:23;;;;;;;;;;;;;;;;;;5023235;28;19929;-65
2021/11/29 03:40:54;;;;;;;;;;;;;;;;;;5028987;28;19936;-65
2021/11/29 03:43:23;;;;;;;;;;;;;;;;;;5029503;28;19924;-65
2021/11/29 03:45:57;;;;;;;;;;;;;;;;;;5026970;28;19929;-65
2021/11/29 03:48:27;;;;;;;;;;;;;;;;;;5027183;28;19925;-65
2021/11/29 03:50:57;;;;;;;;;;;;;;;;;;5027126;28;19929;-65
2021/11/29 03:53:26;;;;;;;;;;;;;;;;;;5027595;28;19982;-65
2021/11/29 03:55:56;;;;;;;;;;;;;;;;;;5024048;28;19987;-65
2021/11/29 03:58:30;;;;;;;;;;;;;;;;;;5019878;28;19966;-65
2021/11/29 04:01:00;;;;;;;;;;;;;;;;;;5023267;28;19925;-65
2021/11/29 04:03:39;;;;;;;;;;;;;;;;;;5020830;28;20412;-65
2021/11/29 04:06:09;;;;;;;;;;;;;;;;;;5021461;28;19987;-65
2021/11/29 04:08:43;;;;;;;;;;;;;;;;;;5027476;28;19932;-66
2021/11/29 04:11:12;;;;;;;;;;;;;;;;;;5024762;28;19937;-65
2021/11/29 04:13:42;;;;;;;;;;;;;;;;;;5024614;28;19929;-66
2021/11/29 04:16:15;;;;;;;;;;;;;;;;;;5003486;28;19929;-65
2021/11/29 04:18:43;;;;;;;;;;;;;;;;;;5023872;28;19926;-66
2021/11/29 04:21:12;;;;;;;;;;;;;;;;;;5023448;28;19925;-65
2021/11/29 04:23:42;;;;;;;;;;;;;;;;;;5022533;28;19929;-65
2021/11/29 04:26:15;;;;;;;;;;;;;;;;;;5020234;28;20351;-66
2021/11/29 04:28:50;;;;;;;;;;;;;;;;;;5025981;28;19925;-65
2021/11/29 04:31:21;;;;;;;;;;;;;;;;;;5018198;28;19925;-66
2021/11/29 04:33:55;;;;;;;;;;;;;;;;;;5028832;28;19936;-65
2021/11/29 04:36:22;;;;;;;;;;;;;;;;;;5025126;28;20314;-65
2021/11/29 04:38:55;;;;;;;;;;;;;;;;;;5025598;28;19982;-66
2021/11/29 04:41:23;;;;;;;;;;;;;;;;;;5030140;28;19983;-65
2021/11/29 04:43:57;;;;;;;;;;;;;;;;;;5026701;28;20243;-65
2021/11/29 04:46:27;;;;;;;;;;;;;;;;;;5027348;28;19990;-65
2021/11/29 04:48:58;;;;;;;;;;;;;;;;;;5021155;28;19982;-65
2021/11/29 04:51:33;;;;;;;;;;;;;;;;;;5014120;28;19925;-65
2021/11/29 04:54:09;;;;;;;;;;;;;;;;;;5026356;28;20343;-65
2021/11/29 04:56:50;;;;;;;;;;;;;;;;;;5023093;28;19928;-65
2021/11/29 04:59:24;;;;;;;;;;;;;;;;;;5014856;28;19932;-66
2021/11/29 05:01:51;;;;;;;;;;;;;;;;;;5030697;28;19929;-66
2021/11/29 05:04:20;;;;;;;;;;;;;;;;;;5016055;28;19926;-66
2021/11/29 05:06:51;;;;;;;;;;;;;;;;;;5026398;28;20033;-65
2021/11/29 05:09:34;;;;;;;;;;;;;;;;;;5024467;28;20359;-65
2021/11/29 05:12:02;;;;;;;;;;;;;;;;;;5025438;28;19939;-65
2021/11/29 05:14:33;;;;;;;;;;;;;;;;;;5010267;28;19929;-66
2021/11/29 05:17:01;;;;;;;;;;;;;;;;;;5026296;28;19929;-66
2021/11/29 05:19:29;;;;;;;;;;;;;;;;;;5025432;28;19938;-65
2021/11/29 05:22:01;;;;;;;;;;;;;;;;;;5029008;28;19937;-65
2021/11/29 05:24:29;;;;;;;;;;;;;;;;;;5022251;28;19929;-65
2021/11/29 05:26:58;;;;;;;;;;;;;;;;;;5027475;28;19925;-65
2021/11/29 05:29:28;;;;;;;;;;;;;;;;;;5022229;28;19933;-65
2021/11/29 05:31:55;;;;;;;;;;;;;;;;;;5026001;28;19955;-66
2021/11/29 05:34:24;;;;;;;;;;;;;;;;;;5010649;28;19937;-65
2021/11/29 05:37:19;;;;;;;;;;;;;;;;;;5017348;28;19925;-65
2021/11/29 05:39:53;;;;;;;;;;;;;;;;;;5027148;28;19933;-65
2021/11/29 05:42:44;;;;;;;;;;;;;;;;;;5027083;28;19925;-65
2021/11/29 05:45:12;;;;;;;;;;;;;;;;;;5025739;28;20405;-65
2021/11/29 05:47:42;;;;;;;;;;;;;;;;;;5017051;28;19925;-65
2021/11/29 05:50:16;;;;;;;;;;;;;;;;;;5026351;28;19926;-65
2021/11/29 05:52:55;;;;;;;;;;;;;;;;;;5023873;28;19932;-65
2021/11/29 05:55:25;;;;;;;;;;;;;;;;;;5022648;28;19929;-65
2021/11/29 05:57:55;;;;;;;;;;;;;;;;;;5026096;28;19937;-65
2021/11/29 06:00:25;;;;;;;;;;;;;;;;;;5020353;28;19932;-65
2021/11/29 06:02:59;;;;;;;;;;;;;;;;;;5018446;28;19925;-65
2021/11/29 06:05:32;;;;;;;;;;;;;;;;;;5021830;28;19936;-65
2021/11/29 06:08:02;;;;;;;;;;;;;;;;;;5026477;28;19944;-65
2021/11/29 06:10:29;;;;;;;;;;;;;;;;;;5029061;28;19924;-65
2021/11/29 06:12:59;;;;;;;;;;;;;;;;;;5030287;28;19925;-65
2021/11/29 06:15:28;;;;;;;;;;;;;;;;;;5023304;28;19935;-65
2021/11/29 06:17:59;;;;;;;;;;;;;;;;;;5025785;28;19925;-65
2021/11/29 06:20:30;;;;;;;;;;;;;;;;;;5026489;28;19925;-65
2021/11/29 06:22:59;;;;;;;;;;;;;;;;;;5025361;28;19925;-65
2021/11/29 06:25:29;;;;;;;;;;;;;;;;;;5018203;28;19929;-65
2021/11/29 06:28:01;;;;;;;;;;;;;;;;;;5027161;28;19933;-65
2021/11/29 06:30:31;;;;;;;;;;;;;;;;;;5025459;28;20267;-63
2021/11/29 06:33:02;;;;;;;;;;;;;;;;;;5025763;28;20609;-64
2021/11/29 06:35:33;;;;;;;;;;;;;;;;;;5019285;28;19941;-65
2021/11/29 06:38:06;;;;;;;;;;;;;;;;;;5017559;28;19929;-66
2021/11/29 06:40:36;;;;;;;;;;;;;;;;;;5021725;28;19929;-66
2021/11/29 06:43:09;;;;;;;;;;;;;;;;;;5022184;28;19975;-66
2021/11/29 06:45:39;;;;;;;;;;;;;;;;;;5018530;28;20021;-65
2021/11/29 06:48:21;;;;;;;;;;;;;;;;;;5021738;28;20015;-66
2021/11/29 06:50:58;;;;;;;;;;;;;;;;;;5019649;28;19994;-68
2021/11/29 06:53:29;;;;;;;;;;;;;;;;;;5022766;28;20282;-68
2021/11/29 06:56:01;;;;;;;;;;;;;;;;;;5027554;28;19933;-68
2021/11/29 06:58:32;;;;;;;;;;;;;;;;;;5025015;28;20484;-67
2021/11/29 07:01:02;;;;;;;;;;;;;;;;;;5021453;28;20547;-68
2021/11/29 07:03:35;;;;;;;;;;;;;;;;;;5021783;28;19941;-68
2021/11/29 07:06:06;;;;;;;;;;;;;;;;;;5033699;28;19925;-64
2021/11/29 07:08:40;;;;;;;;;;;;;;;;;;5022171;28;19925;-66
2021/11/29 07:11:11;;;;;;;;;;;;;;;;;;5031797;28;19947;-67
2021/11/29 07:13:39;;;;;;;;;;;;;;;;;;5018563;28;19925;-66
2021/11/29 07:16:10;;;;;;;;;;;;;;;;;;5015853;28;19925;-65
2021/11/29 07:18:41;;;;;;;;;;;;;;;;;;5018897;28;19925;-66
2021/11/29 07:21:17;;;;;;;;;;;;;;;;;;5018865;28;19932;-65
2021/11/29 07:23:47;;;;;;;;;;;;;;;;;;5019175;28;19925;-65
2021/11/29 07:26:19;;;;;;;;;;;;;;;;;;5020347;28;19971;-67
2021/11/29 07:28:51;;;;;;;;;;;;;;;;;;5015640;28;19936;-67
2021/11/29 07:31:21;;;;;;;;;;;;;;;;;;5019465;28;20527;-65
2021/11/29 07:33:51;;;;;;;;;;;;;;;;;;5025436;28;19925;-67
2021/11/29 07:36:20;;;;;;;;;;;;;;;;;;5010716;28;19936;-66
2021/11/29 07:38:53;;;;;;;;;;;;;;;;;;5018155;28;19986;-66
2021/11/29 07:41:27;;;;;;;;;;;;;;;;;;5004404;28;20358;-67
2021/11/29 07:43:57;;;;;;;;;;;;;;;;;;5023275;28;19929;-68
2021/11/29 07:46:27;;;;;;;;;;;;;;;;;;5024779;28;19933;-68
2021/11/29 07:49:00;;;;;;;;;;;;;;;;;;5023758;28;19936;-67
2021/11/29 07:51:30;;;;;;;;;;;;;;;;;;5021891;28;20463;-65
2021/11/29 07:54:00;;;;;;;;;;;;;;;;;;5024889;28;19936;-66
2021/11/29 07:56:32;;;;;;;;;;;;;;;;;;5024895;28;19990;-66
2021/11/29 07:59:02;;;;;;;;;;;;;;;;;;5027061;28;19925;-64
2021/11/29 08:01:32;;;;;;;;;;;;;;;;;;5005713;28;20391;-67
2021/11/29 08:04:02;;;;;;;;;;;;;;;;;;5030148;28;19925;-65
2021/11/29 08:06:34;;;;;;;;;;;;;;;;;;5023697;28;20507;-66
2021/11/29 08:09:05;;;;;;;;;;;;;;;;;;4995543;28;20004;-66
2021/11/29 08:11:36;;;;;;;;;;;;;;;;;;4984107;28;19926;-67
2021/11/29 08:14:18;;;;;;;;;;;;;;;;;;4994369;28;19957;-66
2021/11/29 08:16:50;;;;;;;;;;;;;;;;;;4990339;28;19932;-66
2021/11/29 08:19:19;;;;;;;;;;;;;;;;;;4992825;28;19952;-65
2021/11/29 08:21:50;;;;;;;;;;;;;;;;;;4989255;28;19933;-66
2021/11/29 08:24:20;;;;;;;;;;;;;;;;;;4992873;28;19930;-66
2021/11/29 08:26:52;;;;;;;;;;;;;;;;;;4987938;28;20031;-69
2021/11/29 08:29:28;;;;;;;;;;;;;;;;;;4979468;28;19930;-65
2021/11/29 08:32:02;;;;;;;;;;;;;;;;;;4986270;28;19953;-67
2021/11/29 08:34:33;;;;;;;;;;;;;;;;;;4986373;28;19932;-67
2021/11/29 08:37:06;;;;;;;;;;;;;;;;;;4985912;28;19936;-66
2021/11/29 08:39:39;;;;;;;;;;;;;;;;;;4982735;28;19925;-67
2021/11/29 08:42:11;;;;;;;;;;;;;;;;;;4988495;28;19934;-68
2021/11/29 08:44:39;;;;;;;;;;;;;;;;;;4989747;28;19925;-67
2021/11/29 08:47:09;;;;;;;;;;;;;;;;;;4984970;28;20045;-67
2021/11/29 08:49:39;;;;;;;;;;;;;;;;;;4982302;28;19933;-68
2021/11/29 08:52:12;;;;;;;;;;;;;;;;;;4987570;28;19934;-68
2021/11/29 08:54:41;;;;;;;;;;;;;;;;;;5005747;28;19925;-66
2021/11/29 08:57:12;;;;;;;;;;;;;;;;;;4988581;28;19929;-69
2021/11/29 08:59:41;;;;;;;;;;;;;;;;;;4982785;28;20553;-69
2021/11/29 09:02:15;;;;;;;;;;;;;;;;;;4992922;28;19937;-67
2021/11/29 09:04:43;;;;;;;;;;;;;;;;;;4992475;28;19948;-68
2021/11/29 09:07:16;;;;;;;;;;;;;;;;;;4992398;28;19932;-68
2021/11/29 09:09:46;;;;;;;;;;;;;;;;;;5023775;28;20397;-67
2021/11/29 09:12:15;;;;;;;;;;;;;;;;;;5019987;28;20358;-67
2021/11/29 09:14:43;;;;;;;;;;;;;;;;;;5020411;28;19944;-68
2021/11/29 09:17:16;;;;;;;;;;;;;;;;;;5026666;28;19941;-68
2021/11/29 09:19:45;;;;;;;;;;;;;;;;;;5023262;28;19936;-67
2021/11/29 09:22:18;;;;;;;;;;;;;;;;;;5027650;28;20019;-70
2021/11/29 09:24:49;;;;;;;;;;;;;;;;;;5019582;28;19936;-68
2021/11/29 09:27:19;;;;;;;;;;;;;;;;;;5022435;28;19934;-67
2021/11/29 09:29:50;;;;;;;;;;;;;;;;;;5022835;28;19925;-69
2021/11/29 09:32:19;;;;;;;;;;;;;;;;;;5022051;28;19929;-67
2021/11/29 09:34:49;;;;;;;;;;;;;;;;;;5019633;28;19926;-67
2021/11/29 09:37:36;;;;;;;;;;;;;;;;;;5018943;28;20024;-66
2021/11/29 09:40:03;;;;;;;;;;;;;;;;;;5025288;28;19940;-66
2021/11/29 09:42:33;;;;;;;;;;;;;;;;;;5023611;28;19940;-66
2021/11/29 09:45:09;;;;;;;;;;;;;;;;;;5026192;28;19940;-67
2021/11/29 09:47:39;;;;;;;;;;;;;;;;;;5020445;28;19940;-69
2021/11/29 09:50:12;;;;;;;;;;;;;;;;;;5028235;28;19925;-69
2021/11/29 09:52:43;;;;;;;;;;;;;;;;;;5026799;28;19925;-69
2021/11/29 09:55:20;;;;;;;;;;;;;;;;;;5023031;28;19925;-68
2021/11/29 09:57:51;;;;;;;;;;;;;;;;;;5026669;28;19925;-66
2021/11/29 10:00:20;;;;;;;;;;;;;;;;;;5022669;28;19933;-67
2021/11/29 10:02:57;;;;;;;;;;;;;;;;;;5024489;28;19925;-67
2021/11/29 10:05:34;;;;;;;;;;;;;;;;;;5022445;28;19932;-68
2021/11/29 10:08:05;;;;;;;;;;;;;;;;;;5023617;28;19940;-67
2021/11/29 10:10:37;;;;;;;;;;;;;;;;;;5022711;28;20401;-67
2021/11/29 10:13:07;;;;;;;;;;;;;;;;;;5015811;28;19937;-66
2021/11/29 10:15:35;;;;;;;;;;;;;;;;;;4969178;28;19940;-65
2021/11/29 10:18:05;;;;;;;;;;;;;;;;;;5014542;28;19925;-66
2021/11/29 10:20:34;;;;;;;;;;;;;;;;;;5013008;28;19935;-67
2021/11/29 10:23:07;;;;;;;;;;;;;;;;;;5024771;28;19933;-66
2021/11/29 10:25:38;;;;;;;;;;;;;;;;;;5020780;28;20491;-67
2021/11/29 10:28:09;;;;;;;;;;;;;;;;;;5020804;28;20544;-67
2021/11/29 10:30:37;;;;;;;;;;;;;;;;;;5022631;28;19929;-66
2021/11/29 10:33:11;;;;;;;;;;;;;;;;;;5021222;28;19979;-67
2021/11/29 10:35:38;;;;;;;;;;;;;;;;;;5015779;28;19932;-69
2021/11/29 10:38:10;;;;;;;;;;;;;;;;;;5025002;28;19982;-69
2021/11/29 10:40:38;;;;;;;;;;;;;;;;;;5025988;28;19925;-68
2021/11/29 10:43:07;;;;;;;;;;;;;;;;;;5024910;28;19937;-69
2021/11/29 10:45:38;;;;;;;;;;;;;;;;;;5030204;28;19933;-68
2021/11/29 10:48:11;;;;;;;;;;;;;;;;;;5023316;28;20008;-72
2021/11/29 10:50:46;;;;;;;;;;;;;;;;;;5026142;28;20334;-67
2021/11/29 10:53:15;;;;;;;;;;;;;;;;;;5026568;28;19929;-69
2021/11/29 10:55:44;;;;;;;;;;;;;;;;;;5018992;28;19937;-71
2021/11/29 10:58:16;;;;;;;;;;;;;;;;;;5025786;28;19925;-70
2021/11/29 11:00:47;;;;;;;;;;;;;;;;;;5019179;28;20011;-70
2021/11/29 11:03:15;;;;;;;;;;;;;;;;;;5023794;28;19936;-72
2021/11/29 11:05:46;;;;;;;;;;;;;;;;;;5021658;28;19929;-68
2021/11/29 11:08:18;;;;;;;;;;;;;;;;;;5019782;28;20370;-69
2021/11/29 11:10:51;;;;;;;;;;;;;;;;;;5020593;28;19935;-67
2021/11/29 11:13:21;;;;;;;;;;;;;;;;;;5018419;28;19933;-68
2021/11/29 11:15:50;;;;;;;;;;;;;;;;;;5027868;28;19928;-69
2021/11/29 11:18:33;;;;;;;;;;;;;;;;;;5006413;28;19929;-72
2021/11/29 11:21:05;;;;;;;;;;;;;;;;;;5023420;28;19929;-71
2021/11/29 11:23:36;;;;;;;;;;;;;;;;;;5021731;28;19933;-72
2021/11/29 11:26:07;;;;;;;;;;;;;;;;;;5027307;28;19936;-68
2021/11/29 11:28:40;;;;;;;;;;;;;;;;;;5030464;28;20370;-68
2021/11/29 11:31:14;;;;;;;;;;;;;;;;;;5026298;28;19936;-68
2021/11/29 11:33:43;;;;;;;;;;;;;;;;;;5027270;28;19925;-69
2021/11/29 11:36:15;;;;;;;;;;;;;;;;;;5021442;28;19928;-70
2021/11/29 11:38:45;;;;;;;;;;;;;;;;;;5028611;28;20454;-68
2021/11/29 11:41:14;;;;;;;;;;;;;;;;;;5028661;28;20013;-69
2021/11/29 11:43:44;;;;;;;;;;;;;;;;;;5027771;28;19925;-68
2021/11/29 11:46:21;;;;;;;;;;;;;;;;;;5026327;28;20286;-69
2021/11/29 11:48:51;;;;;;;;;;;;;;;;;;5025706;28;19929;-69
2021/11/29 11:51:24;;;;;;;;;;;;;;;;;;5009586;28;19933;-71
2021/11/29 11:53:56;;;;;;;;;;;;;;;;;;5012588;28;20543;-70
2021/11/29 11:56:25;;;;;;;;;;;;;;;;;;5021594;28;19932;-71
2021/11/29 11:58:53;;;;;;;;;;;;;;;;;;5025966;28;19929;-68
2021/11/29 12:01:23;;;;;;;;;;;;;;;;;;5019029;28;19940;-66
2021/11/29 12:03:53;;;;;;;;;;;;;;;;;;5026957;28;20020;-67
2021/11/29 12:06:22;;;;;;;;;;;;;;;;;;5023803;28;20355;-70
2021/11/29 12:08:50;;;;;;;;;;;;;;;;;;5009197;28;19960;-69
2021/11/29 12:11:22;;;;;;;;;;;;;;;;;;4980836;28;19925;-72
2021/11/29 12:13:52;;;;;;;;;;;;;;;;;;4983123;28;19926;-66
2021/11/29 12:16:21;;;;;;;;;;;;;;;;;;4986296;28;19933;-67
2021/11/29 12:18:52;;;;;;;;;;;;;;;;;;4985724;28;19926;-68
2021/11/29 12:21:26;;;;;;;;;;;;;;;;;;4989213;28;20017;-68
2021/11/29 12:24:00;;;;;;;;;;;;;;;;;;4989978;28;19925;-67
2021/11/29 12:26:30;;;;;;;;;;;;;;;;;;4991188;28;19929;-69
2021/11/29 12:28:57;;;;;;;;;;;;;;;;;;5000517;28;19926;-69
2021/11/29 12:31:27;;;;;;;;;;;;;;;;;;4981643;28;19975;-69
2021/11/29 12:34:04;;;;;;;;;;;;;;;;;;4996416;28;20425;-69
2021/11/29 12:36:32;;;;;;;;;;;;;;;;;;4985611;28;19930;-68
2021/11/29 12:39:02;;;;;;;;;;;;;;;;;;4991867;28;20334;-68
2021/11/29 12:41:32;;;;;;;;;;;;;;;;;;4989166;28;19930;-68
2021/11/29 12:44:06;;;;;;;;;;;;;;;;;;4992933;28;20127;-67
2021/11/29 12:46:34;;;;;;;;;;;;;;;;;;4991299;28;19936;-68
2021/11/29 12:49:08;;;;;;;;;;;;;;;;;;4983842;28;19930;-68
2021/11/29 12:51:38;;;;;;;;;;;;;;;;;;4983127;28;19933;-68
2021/11/29 12:54:06;;;;;;;;;;;;;;;;;;4989394;28;19975;-69
2021/11/29 12:56:38;;;;;;;;;;;;;;;;;;4992347;28;19926;-70
2021/11/29 12:59:11;;;;;;;;;;;;;;;;;;4989311;28;19933;-69
2021/11/29 13:01:44;;;;;;;;;;;;;;;;;;4994675;28;20410;-67
2021/11/29 13:04:16;;;;;;;;;;;;;;;;;;4996312;28;20305;-68
2021/11/29 13:06:45;;;;;;;;;;;;;;;;;;4995618;28;19930;-68
2021/11/29 13:09:16;;;;;;;;;;;;;;;;;;5013505;28;19931;-65
2021/11/29 13:11:57;;;;;;;;;;;;;;;;;;5022403;28;19986;-68
2021/11/29 13:14:28;;;;;;;;;;;;;;;;;;5023640;28;19925;-68
2021/11/29 13:16:59;;;;;;;;;;;;;;;;;;5024914;28;19925;-69
2021/11/29 13:19:30;;;;;;;;;;;;;;;;;;5021800;28;19928;-70
2021/11/29 13:22:01;;;;;;;;;;;;;;;;;;5023922;28;19940;-70
2021/11/29 13:24:31;;;;;;;;;;;;;;;;;;5022986;28;19932;-68
2021/11/29 13:27:03;;;;;;;;;;;;;;;;;;5025623;28;19929;-70
2021/11/29 13:29:31;;;;;;;;;;;;;;;;;;5022160;28;19929;-69
2021/11/29 13:32:00;;;;;;;;;;;;;;;;;;5023422;28;19925;-69
2021/11/29 13:34:29;;;;;;;;;;;;;;;;;;5023377;28;20002;-72
2021/11/29 13:36:58;;;;;;;;;;;;;;;;;;5022719;28;19929;-72
2021/11/29 13:39:27;;;;;;;;;;;;;;;;;;5020560;28;20470;-65
2021/11/29 13:41:56;;;;;;;;;;;;;;;;;;5027293;28;20115;-70
2021/11/29 13:44:28;;;;;;;;;;;;;;;;;;5025851;28;19936;-69
2021/11/29 13:46:58;;;;;;;;;;;;;;;;;;5028107;28;19933;-69
2021/11/29 13:49:29;;;;;;;;;;;;;;;;;;5015511;28;20475;-69
2021/11/29 13:52:00;;;;;;;;;;;;;;;;;;5028917;28;19933;-67
2021/11/29 13:54:43;;;;;;;;;;;;;;;;;;5025026;28;20448;-66
2021/11/29 13:57:16;;;;;;;;;;;;;;;;;;5026624;28;19929;-66
2021/11/29 13:59:48;;;;;;;;;;;;;;;;;;5024115;28;19928;-70
2021/11/29 14:02:18;;;;;;;;;;;;;;;;;;5027034;28;19929;-68
2021/11/29 14:05:02;;;;;;;;;;;;;;;;;;5024665;28;19948;-66
2021/11/29 14:07:29;;;;;;;;;;;;;;;;;;5026080;28;19995;-66
2021/11/29 14:09:57;;;;;;;;;;;;;;;;;;5025208;28;19925;-67
2021/11/29 14:12:29;;;;;;;;;;;;;;;;;;5019730;28;20051;-67
2021/11/29 14:15:00;;;;;;;;;;;;;;;;;;5027224;28;19925;-67
2021/11/29 14:17:35;;;;;;;;;;;;;;;;;;5023458;28;20396;-67
2021/11/29 14:20:05;;;;;;;;;;;;;;;;;;5023306;28;19979;-68
2021/11/29 14:22:34;;;;;;;;;;;;;;;;;;5030351;28;19936;-69
2021/11/29 14:25:04;;;;;;;;;;;;;;;;;;5019295;28;20259;-68
2021/11/29 14:27:31;;;;;;;;;;;;;;;;;;5022812;28;19982;-67
2021/11/29 14:30:03;;;;;;;;;;;;;;;;;;5019976;28;19925;-67
2021/11/29 14:32:35;;;;;;;;;;;;;;;;;;5019934;28;19941;-68
2021/11/29 14:35:04;;;;;;;;;;;;;;;;;;5025742;28;19944;-67
2021/11/29 14:37:35;;;;;;;;;;;;;;;;;;5003766;28;20305;-67
2021/11/29 14:40:17;;;;;;;;;;;;;;;;;;5024728;28;19938;-67
2021/11/29 14:42:48;;;;;;;;;;;;;;;;;;5016897;28;20470;-67
2021/11/29 14:45:15;;;;;;;;;;;;;;;;;;5005846;28;19933;-66
2021/11/29 14:47:50;;;;;;;;;;;;;;;;;;5019179;28;19944;-66
2021/11/29 14:50:37;;;;;;;;;;;;;;;;;;5023228;28;19925;-68
2021/11/29 14:53:11;;;;;;;;;;;;;;;;;;5024203;28;20434;-67
2021/11/29 14:55:42;;;;;;;;;;;;;;;;;;5021291;28;19929;-68
2021/11/29 14:58:09;;;;;;;;;;;;;;;;;;5034882;28;19986;-67
2021/11/29 15:00:36;;;;;;;;;;;;;;;;;;5023505;28;19929;-68
2021/11/29 15:03:12;;;;;;;;;;;;;;;;;;5029959;28;19925;-68
2021/11/29 15:05:43;;;;;;;;;;;;;;;;;;5025849;28;19952;-67
2021/11/29 15:08:14;;;;;;;;;;;;;;;;;;5034441;28;19925;-67
2021/11/29 15:10:44;;;;;;;;;;;;;;;;;;5026276;28;19971;-67
2021/11/29 15:13:12;;;;;;;;;;;;;;;;;;5027548;28;20023;-68
2021/11/29 15:15:42;;;;;;;;;;;;;;;;;;5024279;28;19931;-69
2021/11/29 15:18:12;;;;;;;;;;;;;;;;;;5029449;28;19978;-69
2021/11/29 15:20:44;;;;;;;;;;;;;;;;;;5027004;28;19930;-67
2021/11/29 15:23:12;;;;;;;;;;;;;;;;;;5027877;28;19979;-67
2021/11/29 15:25:43;;;;;;;;;;;;;;;;;;5024457;28;20282;-68
2021/11/29 15:28:13;;;;;;;;;;;;;;;;;;5029031;28;19928;-69
2021/11/29 15:30:42;;;;;;;;;;;;;;;;;;5025486;28;19978;-69
2021/11/29 15:33:16;;;;;;;;;;;;;;;;;;5028835;28;19937;-71
2021/11/29 15:35:45;;;;;;;;;;;;;;;;;;5024833;28;19929;-70
2021/11/29 15:38:17;;;;;;;;;;;;;;;;;;5027751;28;20092;-71
2021/11/29 15:40:50;;;;;;;;;;;;;;;;;;5035172;28;19951;-70
2021/11/29 15:43:30;;;;;;;;;;;;;;;;;;5025228;28;20002;-71
2021/11/29 15:46:04;;;;;;;;;;;;;;;;;;5040651;28;20445;-70
2021/11/29 15:48:34;;;;;;;;;;;;;;;;;;5008863;28;20481;-69
2021/11/29 15:51:05;;;;;;;;;;;;;;;;;;5022626;28;19998;-69
2021/11/29 15:53:46;;;;;;;;;;;;;;;;;;5025666;28;20597;-68
2021/11/29 15:56:14;;;;;;;;;;;;;;;;;;5031763;28;20384;-68
2021/11/29 15:58:53;;;;;;;;;;;;;;;;;;5027324;28;20028;-68
2021/11/29 16:01:24;;;;;;;;;;;;;;;;;;5023087;28;19929;-66
2021/11/29 16:03:55;;;;;;;;;;;;;;;;;;5025909;28;19931;-66
2021/11/29 16:06:24;;;;;;;;;;;;;;;;;;5027233;28;19936;-68
2021/11/29 16:08:55;;;;;;;;;;;;;;;;;;5016549;28;20012;-67
2021/11/29 16:11:25;;;;;;;;;;;;;;;;;;5022155;28;19933;-67
2021/11/29 16:13:58;;;;;;;;;;;;;;;;;;5026505;28;19932;-67
2021/11/29 16:16:26;;;;;;;;;;;;;;;;;;5026583;28;19929;-68
2021/11/29 16:18:56;;;;;;;;;;;;;;;;;;5025950;28;20495;-68
2021/11/29 16:21:27;;;;;;;;;;;;;;;;;;5024195;28;19929;-67
2021/11/29 16:23:54;;;;;;;;;;;;;;;;;;5023584;28;19929;-67
2021/11/29 16:26:22;;;;;;;;;;;;;;;;;;5036316;28;20021;-67
2021/11/29 16:28:56;;;;;;;;;;;;;;;;;;5027903;28;19933;-67
2021/11/29 16:31:24;;;;;;;;;;;;;;;;;;5019483;28;19929;-68
2021/11/29 16:33:53;;;;;;;;;;;;;;;;;;5025404;28;19937;-68
2021/11/29 16:36:21;;;;;;;;;;;;;;;;;;5021946;28;19940;-68
2021/11/29 16:38:51;;;;;;;;;;;;;;;;;;5023180;28;20560;-67
2021/11/29 16:41:20;;;;;;;;;;;;;;;;;;5024922;28;19982;-68
2021/11/29 16:43:51;;;;;;;;;;;;;;;;;;5026435;28;19932;-68
2021/11/29 16:46:21;;;;;;;;;;;;;;;;;;5026655;28;20430;-68
2021/11/29 16:48:56;;;;;;;;;;;;;;;;;;5023689;28;19929;-68
2021/11/29 16:51:39;;;;;;;;;;;;;;;;;;5022702;28;20262;-67
2021/11/29 16:54:08;;;;;;;;;;;;;;;;;;5026507;28;19975;-67
2021/11/29 16:56:38;;;;;;;;;;;;;;;;;;5009230;28;19925;-67
2021/11/29 16:59:09;;;;;;;;;;;;;;;;;;5026655;28;19943;-67
2021/11/29 17:01:39;;;;;;;;;;;;;;;;;;5021694;28;19948;-68
2021/11/29 17:04:18;;;;;;;;;;;;;;;;;;5028670;28;20027;-67
2021/11/29 17:06:56;;;;;;;;;;;;;;;;;;5025647;28;19936;-67
2021/11/29 17:09:27;;;;;;;;;;;;;;;;;;5023691;28;20112;-67
2021/11/29 17:11:57;;;;;;;;;;;;;;;;;;5024116;28;19944;-67